sensor_id;sensor_type;location;lat;lon;timestamp;pressure;altitude;pressure_sealevel;temperature;humidity
63399;BME280;49533;-34.520;150.798;2022-08-25T08:14:18;101357.69;;;14.86;56.73
63399;BME280;49533;-34.520;150.798;2022-08-25T08:16:45;101362.34;;;14.85;56.85
63399;BME280;49533;-34.520;150.798;2022-08-25T08:19:12;101356.06;;;14.85;56.84
63399;BME280;49533;-34.520;150.798;2022-08-25T08:21:39;101366.50;;;14.83;56.94
63399;BME280;49533;-34.520;150.798;2022-08-25T08:24:06;101365.41;;;14.84;56.85
63399;BME280;49533;-34.520;150.798;2022-08-25T08:26:33;101375.84;;;14.82;57.07
63399;BME280;49533;-34.520;150.798;2022-08-25T08:29:01;101386.78;;;14.82;57.35
63399;BME280;49533;-34.520;150.798;2022-08-25T08:31:28;101382.47;;;14.81;56.92
63399;BME280;49533;-34.520;150.798;2022-08-25T08:33:55;101392.56;;;14.80;57.17
63399;BME280;49533;-34.520;150.798;2022-08-25T08:36:23;101391.78;;;14.79;57.18
63399;BME280;49533;-34.520;150.798;2022-08-25T08:38:51;101388.53;;;14.77;57.08
63399;BME280;49533;-34.520;150.798;2022-08-25T08:52:59;101418.16;;;14.75;57.25
63399;BME280;49533;-34.520;150.798;2022-08-25T08:55:35;101415.72;;;14.74;57.29
63399;BME280;49533;-34.520;150.798;2022-08-25T08:58:09;101422.31;;;14.73;57.46
63399;BME280;49533;-34.520;150.798;2022-08-25T09:00:48;101429.22;;;14.70;57.66
63399;BME280;49533;-34.520;150.798;2022-08-25T09:03:40;101431.97;;;14.70;57.73
63399;BME280;49533;-34.520;150.798;2022-08-25T09:06:35;101442.91;;;14.70;57.56
63399;BME280;49533;-34.520;150.798;2022-08-25T09:09:05;101441.28;;;14.69;57.58
63399;BME280;49533;-34.520;150.798;2022-08-25T09:31:04;101453.28;;;14.60;59.21
63399;BME280;49533;-34.520;150.798;2022-08-25T09:33:37;101454.41;;;14.59;59.44
63399;BME280;49533;-34.520;150.798;2022-08-25T09:36:04;101449.22;;;14.57;59.58
63399;BME280;49533;-34.520;150.798;2022-08-25T09:38:31;101453.91;;;14.56;59.50
63399;BME280;49533;-34.520;150.798;2022-08-25T09:41:00;101456.97;;;14.55;59.51
63399;BME280;49533;-34.520;150.798;2022-08-25T09:43:32;101454.91;;;14.47;60.87
63399;BME280;49533;-34.520;150.798;2022-08-25T09:48:53;101453.94;;;14.43;61.44
63399;BME280;49533;-34.520;150.798;2022-08-25T09:54:15;101460.38;;;14.47;61.25
63399;BME280;49533;-34.520;150.798;2022-08-25T09:56:56;101461.81;;;14.44;60.71
63399;BME280;49533;-34.520;150.798;2022-08-25T10:01:57;101456.03;;;14.46;60.76
63399;BME280;49533;-34.520;150.798;2022-08-25T10:04:36;101450.06;;;14.44;60.49
63399;BME280;49533;-34.520;150.798;2022-08-25T10:07:39;101455.53;;;14.44;60.45
63399;BME280;49533;-34.520;150.798;2022-08-25T10:10:17;101459.41;;;14.43;60.44
63399;BME280;49533;-34.520;150.798;2022-08-25T10:12:47;101455.88;;;14.42;60.37
63399;BME280;49533;-34.520;150.798;2022-08-25T10:15:25;101463.25;;;14.42;60.47
63399;BME280;49533;-34.520;150.798;2022-08-25T10:17:53;101463.56;;;14.40;60.15
63399;BME280;49533;-34.520;150.798;2022-08-25T10:20:26;101455.16;;;14.36;60.16
63399;BME280;49533;-34.520;150.798;2022-08-25T10:23:10;101454.06;;;14.38;60.09
63399;BME280;49533;-34.520;150.798;2022-08-25T10:25:46;101459.03;;;14.35;60.09
63399;BME280;49533;-34.520;150.798;2022-08-25T10:32:04;101458.22;;;14.35;60.08
63399;BME280;49533;-34.520;150.798;2022-08-25T10:34:54;101463.19;;;14.33;59.79
63399;BME280;49533;-34.520;150.798;2022-08-25T10:37:51;101465.41;;;14.31;59.82
63399;BME280;49533;-34.520;150.798;2022-08-25T10:40:43;101469.28;;;14.30;59.68
63399;BME280;49533;-34.520;150.798;2022-08-25T10:49:02;101474.88;;;14.25;59.85
63399;BME280;49533;-34.520;150.798;2022-08-25T10:54:45;101465.03;;;14.24;59.77
63399;BME280;49533;-34.520;150.798;2022-08-25T11:00:13;101473.03;;;14.20;60.06
63399;BME280;49533;-34.520;150.798;2022-08-25T11:06:03;101482.38;;;14.19;60.12
63399;BME280;49533;-34.520;150.798;2022-08-25T11:08:38;101478.50;;;14.20;59.73
63399;BME280;49533;-34.520;150.798;2022-08-25T11:13:59;101478.28;;;14.30;59.38
63399;BME280;49533;-34.520;150.798;2022-08-25T11:17:10;101487.16;;;14.36;59.17
63399;BME280;49533;-34.520;150.798;2022-08-25T11:19:52;101482.19;;;14.38;58.93
63399;BME280;49533;-34.520;150.798;2022-08-25T11:25:20;101493.81;;;14.44;58.93
63399;BME280;49533;-34.520;150.798;2022-08-25T11:28:56;101493.56;;;14.31;59.99
63399;BME280;49533;-34.520;150.798;2022-08-25T11:30:51;101493.31;;;14.19;61.01
63399;BME280;49533;-34.520;150.798;2022-08-25T11:33:19;101487.44;;;14.12;61.49
63399;BME280;49533;-34.520;150.798;2022-08-25T11:35:50;101492.00;;;14.03;62.66
63399;BME280;49533;-34.520;150.798;2022-08-25T11:38:32;101497.41;;;13.94;62.91
63399;BME280;49533;-34.520;150.798;2022-08-25T11:41:22;101505.88;;;13.92;63.03
63399;BME280;49533;-34.520;150.798;2022-08-25T11:44:18;101506.31;;;13.86;63.36
63399;BME280;49533;-34.520;150.798;2022-08-25T11:49:52;101508.13;;;13.77;63.74
63399;BME280;49533;-34.520;150.798;2022-08-25T11:55:18;101503.47;;;13.77;63.53
63399;BME280;49533;-34.520;150.798;2022-08-25T11:57:48;101505.50;;;13.72;63.97
63399;BME280;49533;-34.520;150.798;2022-08-25T12:00:38;101506.94;;;13.69;63.99
63399;BME280;49533;-34.520;150.798;2022-08-25T12:06:29;101504.28;;;13.64;64.08
63399;BME280;49533;-34.520;150.798;2022-08-25T12:14:34;101506.00;;;13.60;63.97
63399;BME280;49533;-34.520;150.798;2022-08-25T12:17:36;101514.41;;;13.63;63.47
63399;BME280;49533;-34.520;150.798;2022-08-25T12:20:04;101514.09;;;13.65;63.61
63399;BME280;49533;-34.520;150.798;2022-08-25T12:25:13;101509.34;;;13.57;63.96
63399;BME280;49533;-34.520;150.798;2022-08-25T12:27:50;101512.59;;;13.59;63.64
63399;BME280;49533;-34.520;150.798;2022-08-25T12:30:30;101509.84;;;13.59;63.58
63399;BME280;49533;-34.520;150.798;2022-08-25T12:36:03;101513.72;;;13.58;63.35
63399;BME280;49533;-34.520;150.798;2022-08-25T12:38:46;101501.88;;;13.48;63.38
63399;BME280;49533;-34.520;150.798;2022-08-25T12:41:25;101506.19;;;13.49;63.63
63399;BME280;49533;-34.520;150.798;2022-08-25T12:45:07;101502.88;;;13.53;63.29
63399;BME280;49533;-34.520;150.798;2022-08-25T12:47:29;101513.41;;;13.45;63.65
63399;BME280;49533;-34.520;150.798;2022-08-25T12:53:10;101500.53;;;13.46;63.31
63399;BME280;49533;-34.520;150.798;2022-08-25T12:55:42;101503.66;;;13.39;63.40
63399;BME280;49533;-34.520;150.798;2022-08-25T12:58:11;101509.53;;;13.33;63.59
63399;BME280;49533;-34.520;150.798;2022-08-25T13:12:15;101506.97;;;13.22;62.79
63399;BME280;49533;-34.520;150.798;2022-08-25T13:14:45;101507.47;;;13.24;62.59
63399;BME280;49533;-34.520;150.798;2022-08-25T13:17:32;101509.38;;;13.24;62.53
63399;BME280;49533;-34.520;150.798;2022-08-25T13:20:25;101515.44;;;13.21;62.89
63399;BME280;49533;-34.520;150.798;2022-08-25T13:22:58;101510.31;;;13.19;62.89
63399;BME280;49533;-34.520;150.798;2022-08-25T13:25:29;101511.41;;;13.18;62.72
63399;BME280;49533;-34.520;150.798;2022-08-25T13:28:00;101518.50;;;13.19;63.06
63399;BME280;49533;-34.520;150.798;2022-08-25T13:30:34;101524.03;;;13.14;63.00
63399;BME280;49533;-34.520;150.798;2022-08-25T13:33:20;101522.19;;;13.10;63.05
63399;BME280;49533;-34.520;150.798;2022-08-25T13:35:49;101518.66;;;13.09;63.03
63399;BME280;49533;-34.520;150.798;2022-08-25T13:38:36;101516.75;;;13.10;63.09
63399;BME280;49533;-34.520;150.798;2022-08-25T13:41:05;101532.31;;;13.09;63.23
63399;BME280;49533;-34.520;150.798;2022-08-25T13:43:33;101535.13;;;13.04;63.09
63399;BME280;49533;-34.520;150.798;2022-08-25T13:46:01;101533.72;;;13.07;63.17
63399;BME280;49533;-34.520;150.798;2022-08-25T13:48:47;101526.84;;;13.09;62.77
63399;BME280;49533;-34.520;150.798;2022-08-25T13:51:25;101532.41;;;13.04;63.25
63399;BME280;49533;-34.520;150.798;2022-08-25T13:53:58;101525.91;;;13.00;63.34
63399;BME280;49533;-34.520;150.798;2022-08-25T13:56:45;101534.59;;;13.02;63.19
63399;BME280;49533;-34.520;150.798;2022-08-25T13:59:37;101537.63;;;13.00;62.84
63399;BME280;49533;-34.520;150.798;2022-08-25T14:02:06;101534.91;;;13.00;63.07
63399;BME280;49533;-34.520;150.798;2022-08-25T14:07:26;101537.28;;;12.88;63.58
63399;BME280;49533;-34.520;150.798;2022-08-25T14:10:09;101541.31;;;12.91;63.24
63399;BME280;49533;-34.520;150.798;2022-08-25T14:12:45;101537.50;;;12.92;63.33
63399;BME280;49533;-34.520;150.798;2022-08-25T14:17:46;101539.13;;;12.93;63.11
63399;BME280;49533;-34.520;150.798;2022-08-25T14:20:23;101544.97;;;12.86;63.68
63399;BME280;49533;-34.520;150.798;2022-08-25T14:22:57;101537.28;;;12.88;63.27
63399;BME280;49533;-34.520;150.798;2022-08-25T14:25:26;101541.63;;;12.89;62.92
63399;BME280;49533;-34.520;150.798;2022-08-25T14:27:57;101548.50;;;12.87;63.40
63399;BME280;49533;-34.520;150.798;2022-08-25T14:30:24;101549.31;;;12.87;63.08
63399;BME280;49533;-34.520;150.798;2022-08-25T14:32:51;101550.34;;;12.91;63.21
63399;BME280;49533;-34.520;150.798;2022-08-25T14:35:19;101548.41;;;12.92;62.77
63399;BME280;49533;-34.520;150.798;2022-08-25T14:37:46;101544.06;;;12.91;63.27
63399;BME280;49533;-34.520;150.798;2022-08-25T14:40:15;101546.38;;;12.83;63.70
63399;BME280;49533;-34.520;150.798;2022-08-25T14:42:46;101550.78;;;12.79;63.42
63399;BME280;49533;-34.520;150.798;2022-08-25T14:45:14;101551.38;;;12.76;63.81
63399;BME280;49533;-34.520;150.798;2022-08-25T14:47:43;101558.97;;;12.79;63.63
63399;BME280;49533;-34.520;150.798;2022-08-25T14:50:12;101555.13;;;12.80;63.94
63399;BME280;49533;-34.520;150.798;2022-08-25T14:52:41;101551.97;;;12.73;64.37
63399;BME280;49533;-34.520;150.798;2022-08-25T14:55:09;101549.53;;;12.72;64.21
63399;BME280;49533;-34.520;150.798;2022-08-25T14:57:38;101558.25;;;12.74;64.26
63399;BME280;49533;-34.520;150.798;2022-08-25T15:00:06;101555.50;;;12.74;63.94
63399;BME280;49533;-34.520;150.798;2022-08-25T15:02:38;101556.91;;;12.71;64.50
63399;BME280;49533;-34.520;150.798;2022-08-25T15:05:07;101551.66;;;12.75;64.32
63399;BME280;49533;-34.520;150.798;2022-08-25T15:07:37;101547.19;;;12.65;64.53
63399;BME280;49533;-34.520;150.798;2022-08-25T15:10:23;101553.38;;;12.71;64.42
63399;BME280;49533;-34.520;150.798;2022-08-25T15:12:50;101546.38;;;12.65;64.17
63399;BME280;49533;-34.520;150.798;2022-08-25T15:15:17;101549.09;;;12.65;64.35
63399;BME280;49533;-34.520;150.798;2022-08-25T15:17:45;101539.84;;;12.66;64.08
63399;BME280;49533;-34.520;150.798;2022-08-25T15:20:13;101553.94;;;12.68;63.96
63399;BME280;49533;-34.520;150.798;2022-08-25T15:22:40;101555.06;;;12.67;63.78
63399;BME280;49533;-34.520;150.798;2022-08-25T15:25:07;101556.75;;;12.62;64.07
63399;BME280;49533;-34.520;150.798;2022-08-25T15:27:35;101554.09;;;12.57;64.17
63399;BME280;49533;-34.520;150.798;2022-08-25T15:30:04;101548.72;;;12.52;64.43
63399;BME280;49533;-34.520;150.798;2022-08-25T15:32:31;101550.06;;;12.55;64.34
63399;BME280;49533;-34.520;150.798;2022-08-25T15:34:59;101549.78;;;12.56;64.49
63399;BME280;49533;-34.520;150.798;2022-08-25T15:37:26;101550.06;;;12.55;64.13
63399;BME280;49533;-34.520;150.798;2022-08-25T15:39:54;101542.63;;;12.60;64.20
63399;BME280;49533;-34.520;150.798;2022-08-25T15:42:21;101545.44;;;12.55;64.04
63399;BME280;49533;-34.520;150.798;2022-08-25T15:48:37;101550.28;;;12.58;64.19
63399;BME280;49533;-34.520;150.798;2022-08-25T15:51:04;101556.34;;;12.55;64.08
63399;BME280;49533;-34.520;150.798;2022-08-25T15:53:34;101545.50;;;12.50;64.28
63399;BME280;49533;-34.520;150.798;2022-08-25T15:56:04;101549.31;;;12.49;64.04
63399;BME280;49533;-34.520;150.798;2022-08-25T15:58:32;101548.72;;;12.52;64.08
63399;BME280;49533;-34.520;150.798;2022-08-25T16:01:00;101557.22;;;12.51;63.96
63399;BME280;49533;-34.520;150.798;2022-08-25T16:03:27;101549.91;;;12.46;63.87
63399;BME280;49533;-34.520;150.798;2022-08-25T16:05:56;101551.03;;;12.45;63.96
63399;BME280;49533;-34.520;150.798;2022-08-25T16:08:23;101550.00;;;12.41;64.40
63399;BME280;49533;-34.520;150.798;2022-08-25T16:10:50;101552.78;;;12.36;64.44
63399;BME280;49533;-34.520;150.798;2022-08-25T16:13:17;101543.81;;;12.35;64.11
63399;BME280;49533;-34.520;150.798;2022-08-25T16:15:48;101543.56;;;12.32;64.21
63399;BME280;49533;-34.520;150.798;2022-08-25T16:18:15;101543.88;;;12.30;64.31
63399;BME280;49533;-34.520;150.798;2022-08-25T16:20:45;101531.94;;;12.26;64.18
63399;BME280;49533;-34.520;150.798;2022-08-25T16:23:12;101536.84;;;12.24;64.37
63399;BME280;49533;-34.520;150.798;2022-08-25T16:25:41;101531.41;;;12.24;64.37
63399;BME280;49533;-34.520;150.798;2022-08-25T16:28:10;101519.78;;;12.18;64.08
63399;BME280;49533;-34.520;150.798;2022-08-25T16:30:38;101521.91;;;12.22;64.22
63399;BME280;49533;-34.520;150.798;2022-08-25T16:33:06;101521.41;;;12.20;64.00
63399;BME280;49533;-34.520;150.798;2022-08-25T16:35:34;101513.53;;;12.18;64.26
63399;BME280;49533;-34.520;150.798;2022-08-25T16:38:01;101511.09;;;12.16;64.53
63399;BME280;49533;-34.520;150.798;2022-08-25T16:40:29;101499.81;;;12.04;64.26
63399;BME280;49533;-34.520;150.798;2022-08-25T16:42:56;101506.00;;;12.10;64.46
63399;BME280;49533;-34.520;150.798;2022-08-25T16:45:24;101514.47;;;12.08;64.54
63399;BME280;49533;-34.520;150.798;2022-08-25T16:47:51;101509.59;;;12.05;64.32
63399;BME280;49533;-34.520;150.798;2022-08-25T16:50:18;101499.91;;;11.99;64.41
63399;BME280;49533;-34.520;150.798;2022-08-25T16:52:45;101498.78;;;12.00;64.92
63399;BME280;49533;-34.520;150.798;2022-08-25T16:55:30;101495.25;;;12.00;64.89
63399;BME280;49533;-34.520;150.798;2022-08-25T16:57:58;101506.34;;;12.03;64.43
63399;BME280;49533;-34.520;150.798;2022-08-25T17:00:28;101503.94;;;12.02;64.62
63399;BME280;49533;-34.520;150.798;2022-08-25T17:03:02;101502.84;;;12.03;64.53
63399;BME280;49533;-34.520;150.798;2022-08-25T17:05:40;101505.84;;;12.01;64.34
63399;BME280;49533;-34.520;150.798;2022-08-25T17:08:07;101504.22;;;12.00;64.62
63399;BME280;49533;-34.520;150.798;2022-08-25T17:10:53;101502.91;;;11.98;64.81
63399;BME280;49533;-34.520;150.798;2022-08-25T17:13:20;101495.00;;;11.96;64.34
63399;BME280;49533;-34.520;150.798;2022-08-25T17:15:47;101497.97;;;12.00;64.65
63399;BME280;49533;-34.520;150.798;2022-08-25T17:18:17;101504.00;;;11.96;64.49
63399;BME280;49533;-34.520;150.798;2022-08-25T17:20:44;101500.25;;;11.92;64.48
63399;BME280;49533;-34.520;150.798;2022-08-25T17:23:11;101502.69;;;11.94;64.51
63399;BME280;49533;-34.520;150.798;2022-08-25T17:25:40;101500.44;;;11.96;64.78
63399;BME280;49533;-34.520;150.798;2022-08-25T17:28:08;101504.81;;;11.97;64.65
63399;BME280;49533;-34.520;150.798;2022-08-25T17:30:36;101509.75;;;11.95;64.34
63399;BME280;49533;-34.520;150.798;2022-08-25T17:33:04;101506.75;;;11.96;64.28
63399;BME280;49533;-34.520;150.798;2022-08-25T17:35:31;101496.22;;;11.85;64.79
63399;BME280;49533;-34.520;150.798;2022-08-25T17:37:58;101505.25;;;11.80;64.71
63399;BME280;49533;-34.520;150.798;2022-08-25T17:40:25;101502.84;;;11.79;64.49
63399;BME280;49533;-34.520;150.798;2022-08-25T17:42:52;101508.78;;;11.81;64.59
63399;BME280;49533;-34.520;150.798;2022-08-25T17:45:19;101516.91;;;11.86;64.17
63399;BME280;49533;-34.520;150.798;2022-08-25T17:47:46;101514.47;;;11.84;64.37
63399;BME280;49533;-34.520;150.798;2022-08-25T17:50:13;101507.50;;;11.73;64.48
63399;BME280;49533;-34.520;150.798;2022-08-25T17:52:40;101516.78;;;11.72;64.55
63399;BME280;49533;-34.520;150.798;2022-08-25T17:55:07;101509.16;;;11.74;64.51
63399;BME280;49533;-34.520;150.798;2022-08-25T17:57:34;101517.59;;;11.72;64.50
63399;BME280;49533;-34.520;150.798;2022-08-25T18:00:02;101520.31;;;11.72;64.49
63399;BME280;49533;-34.520;150.798;2022-08-25T18:02:33;101520.38;;;11.67;64.37
63399;BME280;49533;-34.520;150.798;2022-08-25T18:05:02;101525.81;;;11.67;64.70
63399;BME280;49533;-34.520;150.798;2022-08-25T18:07:29;101532.91;;;11.68;64.58
63399;BME280;49533;-34.520;150.798;2022-08-25T18:09:56;101522.34;;;11.62;64.54
63399;BME280;49533;-34.520;150.798;2022-08-25T18:12:23;101522.41;;;11.57;64.54
63399;BME280;49533;-34.520;150.798;2022-08-25T18:14:50;101524.28;;;11.61;64.38
63399;BME280;49533;-34.520;150.798;2022-08-25T18:17:17;101519.69;;;11.57;64.54
63399;BME280;49533;-34.520;150.798;2022-08-25T18:19:44;101519.53;;;11.48;65.08
63399;BME280;49533;-34.520;150.798;2022-08-25T18:22:11;101519.47;;;11.53;64.91
63399;BME280;49533;-34.520;150.798;2022-08-25T18:24:38;101523.28;;;11.52;64.73
63399;BME280;49533;-34.520;150.798;2022-08-25T18:27:05;101522.69;;;11.55;64.14
63399;BME280;49533;-34.520;150.798;2022-08-25T18:29:32;101527.63;;;11.53;64.56
63399;BME280;49533;-34.520;150.798;2022-08-25T18:31:59;101535.81;;;11.53;64.41
63399;BME280;49533;-34.520;150.798;2022-08-25T18:34:26;101539.03;;;11.55;64.51
63399;BME280;49533;-34.520;150.798;2022-08-25T18:36:53;101539.31;;;11.53;64.37
63399;BME280;49533;-34.520;150.798;2022-08-25T18:39:20;101538.28;;;11.49;64.75
63399;BME280;49533;-34.520;150.798;2022-08-25T18:42:06;101537.78;;;11.42;64.73
63399;BME280;49533;-34.520;150.798;2022-08-25T18:44:33;101539.19;;;11.40;64.89
63399;BME280;49533;-34.520;150.798;2022-08-25T18:47:01;101534.78;;;11.44;64.81
63399;BME280;49533;-34.520;150.798;2022-08-25T18:49:28;101538.69;;;11.38;64.87
63399;BME280;49533;-34.520;150.798;2022-08-25T18:51:55;101549.56;;;11.38;64.45
63399;BME280;49533;-34.520;150.798;2022-08-25T18:54:22;101539.53;;;11.33;64.86
63399;BME280;49533;-34.520;150.798;2022-08-25T18:56:50;101544.41;;;11.36;64.22
63399;BME280;49533;-34.520;150.798;2022-08-25T18:59:17;101549.09;;;11.30;64.48
63399;BME280;49533;-34.520;150.798;2022-08-25T19:01:44;101544.19;;;11.32;64.36
63399;BME280;49533;-34.520;150.798;2022-08-25T19:04:11;101555.56;;;11.35;64.17
63399;BME280;49533;-34.520;150.798;2022-08-25T19:06:40;101549.56;;;11.38;64.14
63399;BME280;49533;-34.520;150.798;2022-08-25T19:09:08;101551.19;;;11.39;64.17
63399;BME280;49533;-34.520;150.798;2022-08-25T19:11:35;101553.69;;;11.35;63.91
63399;BME280;49533;-34.520;150.798;2022-08-25T19:14:03;101564.25;;;11.37;63.95
63399;BME280;49533;-34.520;150.798;2022-08-25T19:16:37;101564.84;;;11.34;64.06
63399;BME280;49533;-34.520;150.798;2022-08-25T19:19:06;101564.88;;;11.28;64.41
63399;BME280;49533;-34.520;150.798;2022-08-25T19:21:35;101557.88;;;11.22;64.29
63399;BME280;49533;-34.520;150.798;2022-08-25T19:24:04;101562.16;;;11.28;64.37
63399;BME280;49533;-34.520;150.798;2022-08-25T19:26:33;101562.19;;;11.23;64.20
63399;BME280;49533;-34.520;150.798;2022-08-25T19:29:06;101550.47;;;11.28;64.31
63399;BME280;49533;-34.520;150.798;2022-08-25T19:31:35;101561.88;;;11.30;63.96
63399;BME280;49533;-34.520;150.798;2022-08-25T19:34:04;101565.16;;;11.27;64.05
63399;BME280;49533;-34.520;150.798;2022-08-25T19:36:32;101562.47;;;11.22;63.83
63399;BME280;49533;-34.520;150.798;2022-08-25T19:39:00;101562.78;;;11.20;63.90
63399;BME280;49533;-34.520;150.798;2022-08-25T19:41:28;101562.25;;;11.18;63.93
63399;BME280;49533;-34.520;150.798;2022-08-25T19:43:56;101558.41;;;11.19;63.99
63399;BME280;49533;-34.520;150.798;2022-08-25T19:46:30;101564.44;;;11.16;64.11
63399;BME280;49533;-34.520;150.798;2022-08-25T19:48:57;101562.25;;;11.18;63.74
63399;BME280;49533;-34.520;150.798;2022-08-25T19:51:25;101567.69;;;11.18;63.69
63399;BME280;49533;-34.520;150.798;2022-08-25T19:53:52;101572.03;;;11.19;63.65
63399;BME280;49533;-34.520;150.798;2022-08-25T19:56:19;101579.16;;;11.15;63.93
63399;BME280;49533;-34.520;150.798;2022-08-25T19:58:46;101581.16;;;11.04;63.90
63399;BME280;49533;-34.520;150.798;2022-08-25T20:01:13;101579.53;;;10.98;63.83
63399;BME280;49533;-34.520;150.798;2022-08-25T20:03:40;101582.00;;;11.00;63.80
63399;BME280;49533;-34.520;150.798;2022-08-25T20:06:07;101585.88;;;10.88;64.13
63399;BME280;49533;-34.520;150.798;2022-08-25T20:08:34;101591.06;;;10.85;64.02
63399;BME280;49533;-34.520;150.798;2022-08-25T20:11:01;101594.00;;;10.88;64.21
63399;BME280;49533;-34.520;150.798;2022-08-25T20:13:28;101599.72;;;10.92;63.75
63399;BME280;49533;-34.520;150.798;2022-08-25T20:15:55;101598.34;;;10.95;63.93
63399;BME280;49533;-34.520;150.798;2022-08-25T20:18:22;101607.03;;;10.97;63.70
63399;BME280;49533;-34.520;150.798;2022-08-25T20:20:49;101618.19;;;10.95;63.75
63399;BME280;49533;-34.520;150.798;2022-08-25T20:23:16;101620.09;;;10.95;63.77
63399;BME280;49533;-34.520;150.798;2022-08-25T20:26:01;101620.38;;;10.93;63.57
63399;BME280;49533;-34.520;150.798;2022-08-25T20:28:28;101624.78;;;10.84;63.94
63399;BME280;49533;-34.520;150.798;2022-08-25T20:30:55;101627.47;;;10.89;63.72
63399;BME280;49533;-34.520;150.798;2022-08-25T20:33:22;101629.09;;;10.90;63.70
63399;BME280;49533;-34.520;150.798;2022-08-25T20:35:49;101626.44;;;10.80;63.43
63399;BME280;49533;-34.520;150.798;2022-08-25T20:38:17;101635.38;;;10.85;63.37
63399;BME280;49533;-34.520;150.798;2022-08-25T20:40:44;101634.56;;;10.85;63.43
63399;BME280;49533;-34.520;150.798;2022-08-25T20:43:11;101639.72;;;10.86;63.50
63399;BME280;49533;-34.520;150.798;2022-08-25T20:45:38;101640.53;;;10.87;63.17
63399;BME280;49533;-34.520;150.798;2022-08-25T20:48:05;101645.19;;;10.81;63.75
63399;BME280;49533;-34.520;150.798;2022-08-25T20:50:32;101649.53;;;10.82;63.70
63399;BME280;49533;-34.520;150.798;2022-08-25T20:52:59;101642.19;;;10.83;63.79
63399;BME280;49533;-34.520;150.798;2022-08-25T20:55:27;101658.75;;;10.86;63.32
63399;BME280;49533;-34.520;150.798;2022-08-25T20:57:54;101655.50;;;10.84;63.60
63399;BME280;49533;-34.520;150.798;2022-08-25T21:00:21;101648.44;;;10.83;63.44
63399;BME280;49533;-34.520;150.798;2022-08-25T21:02:48;101652.03;;;10.74;63.75
63399;BME280;49533;-34.520;150.798;2022-08-25T21:05:16;101666.13;;;10.81;63.36
63399;BME280;49533;-34.520;150.798;2022-08-25T21:07:43;101665.88;;;10.77;63.87
63399;BME280;49533;-34.520;150.798;2022-08-25T21:10:11;101660.47;;;10.72;63.57
63399;BME280;49533;-34.520;150.798;2022-08-25T21:12:38;101660.44;;;10.77;63.60
63399;BME280;49533;-34.520;150.798;2022-08-25T21:15:06;101672.91;;;10.83;63.47
63399;BME280;49533;-34.520;150.798;2022-08-25T21:17:33;101675.88;;;10.87;63.21
63399;BME280;49533;-34.520;150.798;2022-08-25T21:20:00;101687.56;;;10.87;63.49
63399;BME280;49533;-34.520;150.798;2022-08-25T21:22:27;101688.09;;;10.90;63.61
63399;BME280;49533;-34.520;150.798;2022-08-25T21:24:54;101693.50;;;10.95;63.16
63399;BME280;49533;-34.520;150.798;2022-08-25T21:27:21;101687.50;;;10.98;62.94
63399;BME280;49533;-34.520;150.798;2022-08-25T21:29:48;101681.50;;;11.01;62.77
63399;BME280;49533;-34.520;150.798;2022-08-25T21:32:15;101679.56;;;11.06;62.84
63399;BME280;49533;-34.520;150.798;2022-08-25T21:34:44;101685.25;;;11.10;62.50
63399;BME280;49533;-34.520;150.798;2022-08-25T21:37:11;101688.22;;;11.14;62.71
63399;BME280;49533;-34.520;150.798;2022-08-25T21:39:38;101693.63;;;11.19;62.60
63399;BME280;49533;-34.520;150.798;2022-08-25T21:42:05;101693.06;;;11.22;62.39
63399;BME280;49533;-34.520;150.798;2022-08-25T21:44:32;101703.91;;;11.27;62.21
63399;BME280;49533;-34.520;150.798;2022-08-25T21:46:59;101703.63;;;11.28;62.42
63399;BME280;49533;-34.520;150.798;2022-08-25T21:49:28;101710.69;;;11.29;62.37
63399;BME280;49533;-34.520;150.798;2022-08-25T21:51:55;101709.59;;;11.30;62.69
63399;BME280;49533;-34.520;150.798;2022-08-25T21:54:22;101701.44;;;11.30;62.66
63399;BME280;49533;-34.520;150.798;2022-08-25T21:57:01;101708.50;;;11.31;62.30
63399;BME280;49533;-34.520;150.798;2022-08-25T21:59:32;101710.66;;;11.35;62.54
63399;BME280;49533;-34.520;150.798;2022-08-25T22:02:03;101703.31;;;11.35;62.75
63399;BME280;49533;-34.520;150.798;2022-08-25T22:04:31;101710.63;;;11.40;62.32
63399;BME280;49533;-34.520;150.798;2022-08-25T22:06:59;101718.19;;;11.48;62.51
63399;BME280;49533;-34.520;150.798;2022-08-25T22:09:27;101711.06;;;11.52;62.12
63399;BME280;49533;-34.520;150.798;2022-08-25T22:11:54;101721.34;;;11.60;62.28
63399;BME280;49533;-34.520;150.798;2022-08-25T22:14:23;101722.09;;;11.71;62.36
63399;BME280;49533;-34.520;150.798;2022-08-25T22:16:50;101721.19;;;11.81;62.56
63399;BME280;49533;-34.520;150.798;2022-08-25T22:19:17;101713.25;;;11.89;62.46
63399;BME280;49533;-34.520;150.798;2022-08-25T22:21:44;101716.94;;;11.99;62.58
63399;BME280;49533;-34.520;150.798;2022-08-25T22:24:11;101709.00;;;12.07;62.23
63399;BME280;49533;-34.520;150.798;2022-08-25T22:26:39;101709.97;;;12.16;62.16
63399;BME280;49533;-34.520;150.798;2022-08-25T22:29:07;101713.97;;;12.24;62.08
63399;BME280;49533;-34.520;150.798;2022-08-25T22:31:34;101714.69;;;12.35;61.76
63399;BME280;49533;-34.520;150.798;2022-08-25T22:34:02;101731.22;;;12.44;62.07
63399;BME280;49533;-34.520;150.798;2022-08-25T22:36:33;101728.38;;;12.54;62.23
63399;BME280;49533;-34.520;150.798;2022-08-25T22:39:00;101732.91;;;12.64;61.95
63399;BME280;49533;-34.520;150.798;2022-08-25T22:41:29;101734.69;;;12.73;61.71